Time;durP1;ratioP1;P1;durP2;ratioP2;P2;SDS_P1;SDS_P2;PMS_P1;PMS_P2;Temp;Humidity;BMP_temperature;BMP_pressure;BME280_temperature;BME280_humidity;BME280_pressure;Samples;Min_cycle;Max_cycle;Signal;HPM_P1;HPM_P2
2022/12/06 00:02:45;;;;;;;15.30;13.70;;;7.40;99.90;;;;;;10363037;28;20639;-84
2022/12/06 00:07:49;;;;;;;16.07;14.57;;;7.50;99.90;;;;;;10357615;28;20224;-83
2022/12/06 00:12:53;;;;;;;16.23;14.13;;;7.40;99.90;;;;;;10347941;28;20208;-84
2022/12/06 00:17:56;;;;;;;13.33;12.23;;;7.40;99.90;;;;;;10365262;28;20246;-84
2022/12/06 00:22:58;;;;;;;14.57;13.13;;;7.40;99.90;;;;;;10355458;28;20285;-81
2022/12/06 00:28:00;;;;;;;13.20;12.00;;;7.40;99.90;;;;;;10339607;28;20234;-83
2022/12/06 00:33:06;;;;;;;11.20;10.10;;;7.50;99.90;;;;;;10327806;28;20199;-83
2022/12/06 00:38:08;;;;;;;11.33;10.30;;;7.50;99.90;;;;;;10348896;28;20362;-82
2022/12/06 00:43:10;;;;;;;12.27;10.60;;;7.50;99.90;;;;;;10357653;28;20237;-82
2022/12/06 00:48:13;;;;;;;15.47;12.97;;;7.40;99.90;;;;;;10339166;28;20226;-82
2022/12/06 00:53:16;;;;;;;14.07;12.63;;;7.30;99.90;;;;;;10365642;28;20294;-78
2022/12/06 00:58:18;;;;;;;13.17;11.87;;;7.30;99.90;;;;;;10354934;28;20215;-78
2022/12/06 01:03:22;;;;;;;11.70;10.60;;;7.20;99.90;;;;;;10340529;28;20290;-79
2022/12/06 01:08:24;;;;;;;10.40;9.50;;;7.20;99.90;;;;;;10317496;28;20274;-83
2022/12/06 01:13:26;;;;;;;9.40;8.67;;;7.20;99.90;;;;;;10323146;28;20195;-83
2022/12/06 01:18:30;;;;;;;9.80;8.90;;;7.10;99.90;;;;;;10352917;28;20302;-83
2022/12/06 01:23:32;;;;;;;7.30;6.80;;;7.00;99.90;;;;;;10337671;28;20675;-82
2022/12/06 01:28:34;;;;;;;9.37;8.57;;;6.90;99.90;;;;;;10375654;28;20226;-83
2022/12/06 01:33:38;;;;;;;8.67;7.87;;;6.90;99.90;;;;;;10356351;28;20191;-83
2022/12/06 01:38:40;;;;;;;8.10;7.30;;;6.90;99.90;;;;;;10379231;28;20270;-82
2022/12/06 01:43:43;;;;;;;8.30;7.60;;;6.90;99.90;;;;;;10357093;28;20207;-82
2022/12/06 01:49:02;;;;;;;8.00;7.20;;;6.90;99.90;;;;;;10359440;28;20696;-82
2022/12/06 01:54:08;;;;;;;7.40;6.87;;;6.90;99.90;;;;;;10368860;28;20226;-82
2022/12/06 01:59:11;;;;;;;7.17;6.67;;;6.90;99.90;;;;;;10346597;28;20247;-80
2022/12/06 02:04:16;;;;;;;6.83;6.37;;;6.80;99.90;;;;;;10349147;28;20226;-81
2022/12/06 02:09:19;;;;;;;6.93;6.43;;;6.90;99.90;;;;;;10348211;28;20627;-81
2022/12/06 02:14:25;;;;;;;6.90;6.40;;;6.90;99.90;;;;;;10376104;28;20206;-82
2022/12/06 02:20:03;;;;;;;6.50;6.10;;;6.90;99.90;;;;;;10315129;28;20758;-80
2022/12/06 02:25:43;;;;;;;7.57;7.07;;;6.90;99.90;;;;;;10308535;28;20217;-80
2022/12/06 02:30:49;;;;;;;5.47;5.17;;;6.90;99.90;;;;;;10294389;28;20219;-81
2022/12/06 02:35:57;;;;;;;6.50;6.10;;;6.90;99.90;;;;;;10294982;28;20271;-82
2022/12/06 02:41:03;;;;;;;6.97;6.43;;;6.90;99.90;;;;;;10337429;28;20298;-81
2022/12/06 02:46:08;;;;;;;7.00;6.40;;;6.90;99.90;;;;;;10380503;28;20206;-81
2022/12/06 02:51:14;;;;;;;7.10;6.60;;;6.90;99.90;;;;;;10342064;28;20282;-82
2022/12/06 02:56:17;;;;;;;7.00;6.47;;;6.90;99.90;;;;;;10334122;28;20206;-80
2022/12/06 03:01:23;;;;;;;8.40;7.70;;;6.90;99.90;;;;;;10358813;28;20273;-79
2022/12/06 03:06:58;;;;;;;7.90;7.20;;;6.90;99.90;;;;;;10279288;28;20239;-80
2022/12/06 03:12:08;;;;;;;8.93;8.23;;;7.00;99.90;;;;;;10349258;28;20228;-79
2022/12/06 03:17:16;;;;;;;8.00;7.40;;;7.00;99.90;;;;;;10330414;28;20217;-79
2022/12/06 03:22:24;;;;;;;9.53;8.73;;;7.00;99.90;;;;;;10326622;28;20205;-80
2022/12/06 03:27:28;;;;;;;8.63;7.83;;;7.00;99.90;;;;;;10326516;28;20222;-80
2022/12/06 03:32:34;;;;;;;8.90;8.20;;;7.00;99.90;;;;;;10371203;28;20558;-80
2022/12/06 03:37:40;;;;;;;9.30;8.50;;;7.10;99.90;;;;;;10316201;28;20669;-78
2022/12/06 03:42:42;;;;;;;8.30;7.70;;;7.10;99.90;;;;;;10339602;28;20197;-80
2022/12/06 03:47:53;;;;;;;8.57;7.90;;;7.20;99.90;;;;;;10336386;28;20222;-78
2022/12/06 03:52:55;;;;;;;9.67;8.90;;;7.20;99.90;;;;;;10324638;28;20514;-81
2022/12/06 03:57:57;;;;;;;9.60;8.80;;;7.20;99.90;;;;;;10322679;28;20218;-81
2022/12/06 04:03:01;;;;;;;11.00;10.10;;;7.20;99.90;;;;;;10351979;28;20302;-81
2022/12/06 04:08:03;;;;;;;12.77;11.50;;;7.30;99.90;;;;;;10341888;28;20226;-80
2022/12/06 04:13:05;;;;;;;10.80;9.90;;;7.40;99.90;;;;;;10370970;28;20234;-79
2022/12/06 04:18:13;;;;;;;10.73;9.83;;;7.40;99.90;;;;;;10321816;28;20250;-79
2022/12/06 04:23:15;;;;;;;9.73;8.83;;;7.40;99.90;;;;;;10357492;28;20198;-81
2022/12/06 04:38:57;;;;;;;9.70;8.80;;;7.30;99.90;;;;;;10347982;28;20245;-81
2022/12/06 04:43:59;;;;;;;10.40;9.53;;;7.30;99.90;;;;;;10308375;28;20599;-81
2022/12/06 04:49:03;;;;;;;9.70;8.93;;;7.30;99.90;;;;;;10352510;28;20258;-79
2022/12/06 04:54:06;;;;;;;10.20;9.27;;;7.20;99.90;;;;;;10357713;28;20199;-84
2022/12/06 04:59:08;;;;;;;9.70;8.90;;;7.20;99.90;;;;;;10322417;28;20305;-84
2022/12/06 05:04:11;;;;;;;10.23;9.07;;;7.20;99.90;;;;;;10367393;28;20195;-84
2022/12/06 05:09:14;;;;;;;10.70;9.70;;;7.20;99.90;;;;;;10345233;28;20272;-83
2022/12/06 05:14:16;;;;;;;11.03;10.03;;;7.10;99.90;;;;;;10363149;28;20199;-83
2022/12/06 05:19:19;;;;;;;12.20;11.10;;;7.10;99.90;;;;;;10335989;28;20582;-83
2022/12/06 05:24:21;;;;;;;46.07;32.60;;;7.10;99.90;;;;;;10360704;28;20206;-82
2022/12/06 05:29:24;;;;;;;13.70;12.37;;;7.10;99.90;;;;;;10381636;28;20231;-83
2022/12/06 05:34:27;;;;;;;12.30;11.30;;;7.10;99.90;;;;;;10347362;28;20275;-83
2022/12/06 05:39:29;;;;;;;12.67;11.57;;;7.20;99.90;;;;;;10377815;28;20222;-84
2022/12/06 05:44:31;;;;;;;11.90;10.90;;;7.20;99.90;;;;;;10329814;28;20194;-84
2022/12/06 05:49:35;;;;;;;17.20;15.40;;;7.20;99.90;;;;;;10345398;28;20242;-82
2022/12/06 05:54:37;;;;;;;20.37;17.70;;;7.20;99.90;;;;;;10361770;28;20205;-79
2022/12/06 05:59:39;;;;;;;10.83;9.90;;;7.20;99.90;;;;;;10323204;28;20210;-79
2022/12/06 06:04:42;;;;;;;14.97;13.47;;;7.30;99.90;;;;;;10357214;28;20250;-80
2022/12/06 06:09:44;;;;;;;9.97;9.23;;;7.40;99.90;;;;;;10366456;28;20309;-81
2022/12/06 06:14:46;;;;;;;8.90;8.20;;;7.40;99.90;;;;;;10326593;28;20249;-82
2022/12/06 06:19:50;;;;;;;8.90;8.13;;;7.50;99.90;;;;;;10384986;28;20210;-79
2022/12/06 06:24:52;;;;;;;9.13;8.33;;;7.60;99.90;;;;;;10319915;28;20242;-81
2022/12/06 06:29:54;;;;;;;7.80;7.10;;;7.60;99.90;;;;;;10370692;28;20226;-81
2022/12/06 06:34:57;;;;;;;8.77;8.07;;;7.70;99.90;;;;;;10326169;28;20191;-80
2022/12/06 06:40:00;;;;;;;10.23;7.67;;;7.70;99.90;;;;;;10362901;28;20210;-81
2022/12/06 06:45:02;;;;;;;8.67;8.07;;;7.70;99.90;;;;;;10324346;28;20613;-80
2022/12/06 06:50:07;;;;;;;8.43;7.73;;;7.80;99.90;;;;;;10376362;28;20239;-78
2022/12/06 06:55:09;;;;;;;8.63;7.93;;;7.80;99.90;;;;;;10372402;28;20225;-78
2022/12/06 07:00:13;;;;;;;8.97;8.27;;;7.70;99.90;;;;;;10316384;28;20247;-79
2022/12/06 07:05:17;;;;;;;7.80;7.20;;;7.70;99.90;;;;;;10363002;28;20203;-77
2022/12/06 07:10:19;;;;;;;8.27;7.57;;;7.70;99.90;;;;;;10408916;23;20230;-80
2022/12/06 07:15:21;;;;;;;17.57;15.80;;;7.80;99.90;;;;;;10421952;28;20241;-80
2022/12/06 07:20:24;;;;;;;6.97;6.37;;;7.80;99.90;;;;;;10409848;28;20308;-79
2022/12/06 07:25:27;;;;;;;8.40;7.60;;;7.80;99.90;;;;;;10404517;28;20202;-80
2022/12/06 07:30:29;;;;;;;7.63;7.03;;;7.70;99.90;;;;;;10398064;28;20218;-79
2022/12/06 07:35:32;;;;;;;8.23;7.53;;;7.70;99.90;;;;;;10402143;28;20197;-78
2022/12/06 07:40:35;;;;;;;8.17;7.57;;;7.60;99.90;;;;;;10419002;28;20224;-81
2022/12/06 07:45:37;;;;;;;7.47;6.87;;;7.50;99.90;;;;;;10428996;28;20653;-81
2022/12/06 07:50:40;;;;;;;8.03;7.43;;;7.40;99.90;;;;;;10407217;28;20304;-81
2022/12/06 07:55:42;;;;;;;8.90;8.20;;;7.40;99.90;;;;;;10398519;28;20225;-79
2022/12/06 08:00:44;;;;;;;10.10;9.10;;;7.40;99.90;;;;;;10394182;28;20233;-80
2022/12/06 08:05:55;;;;;;;10.50;9.40;;;7.40;99.90;;;;;;10404798;28;20201;-80
2022/12/06 08:10:58;;;;;;;9.57;8.67;;;7.50;99.90;;;;;;10414874;28;20229;-81
2022/12/06 08:16:04;;;;;;;11.13;9.30;;;7.60;99.90;;;;;;10423661;28;20215;-81
2022/12/06 08:21:10;;;;;;;9.70;8.97;;;7.70;99.90;;;;;;10423509;28;20271;-79
2022/12/06 08:26:14;;;;;;;9.40;8.60;;;7.70;99.90;;;;;;10416657;28;20198;-80
2022/12/06 08:31:19;;;;;;;9.40;8.60;;;7.80;99.90;;;;;;10396944;28;20218;-79
2022/12/06 08:36:24;;;;;;;8.40;7.63;;;7.90;99.90;;;;;;10412598;28;20194;-80
2022/12/06 08:46:47;;;;;;;8.60;7.70;;;8.00;99.90;;;;;;10400654;28;20217;-78
2022/12/06 08:51:51;;;;;;;10.37;9.47;;;8.00;99.90;;;;;;10424586;28;20225;-81
2022/12/06 08:56:53;;;;;;;11.50;10.60;;;8.10;99.90;;;;;;10439147;28;20217;-82
2022/12/06 09:01:55;;;;;;;9.47;8.67;;;8.10;99.90;;;;;;10416237;28;20227;-82
2022/12/06 09:06:58;;;;;;;7.03;6.53;;;8.20;99.90;;;;;;10415694;28;20263;-80
2022/12/06 09:12:00;;;;;;;10.03;9.03;;;8.20;99.90;;;;;;10421993;28;20204;-81
2022/12/06 09:17:03;;;;;;;10.13;8.67;;;8.20;99.90;;;;;;10457102;28;20240;-81
2022/12/06 09:22:06;;;;;;;10.97;10.07;;;8.20;99.90;;;;;;10443786;28;20244;-79
2022/12/06 09:27:08;;;;;;;10.57;9.77;;;8.20;99.90;;;;;;10420212;28;20225;-80
2022/12/06 09:32:10;;;;;;;11.23;10.23;;;8.20;99.90;;;;;;10402300;28;20198;-80
2022/12/06 09:37:14;;;;;;;11.23;10.07;;;8.20;99.90;;;;;;10412987;28;20209;-80
2022/12/06 09:42:52;;;;;;;11.83;10.73;;;8.30;99.90;;;;;;10446793;28;20228;-80
2022/12/06 09:48:36;;;;;;;12.30;11.30;;;8.30;99.90;;;;;;10412188;28;20246;-79
2022/12/06 09:53:53;;;;;;;13.20;12.00;;;8.30;99.90;;;;;;10443887;28;20204;-80
2022/12/06 09:59:07;;;;;;;12.60;11.40;;;8.30;99.90;;;;;;10454871;28;20255;-79
2022/12/06 10:04:41;;;;;;;12.90;11.70;;;8.40;99.90;;;;;;10448854;28;20277;-79
2022/12/06 10:09:56;;;;;;;13.10;11.90;;;8.40;99.90;;;;;;10425635;28;20572;-79
2022/12/06 10:15:19;;;;;;;15.97;14.47;;;8.30;99.90;;;;;;10405326;28;20200;-80
2022/12/06 10:20:34;;;;;;;17.67;15.97;;;8.30;99.90;;;;;;10425403;28;20308;-79
2022/12/06 10:25:46;;;;;;;15.47;14.07;;;8.30;99.90;;;;;;10443316;28;20252;-80
2022/12/06 10:30:52;;;;;;;17.50;16.00;;;8.30;99.90;;;;;;10440137;28;20217;-81
2022/12/06 10:35:59;;;;;;;17.63;15.90;;;8.40;99.90;;;;;;10424182;28;20206;-81
2022/12/06 10:41:12;;;;;;;15.37;13.97;;;8.40;99.90;;;;;;10422127;28;20210;-78
2022/12/06 10:51:43;;;;;;;16.90;15.27;;;8.50;99.90;;;;;;10408151;28;20201;-83
2022/12/06 10:56:49;;;;;;;17.37;15.70;;;8.50;99.90;;;;;;10404031;28;20248;-78
2022/12/06 11:01:52;;;;;;;17.27;15.67;;;8.50;99.90;;;;;;10394467;28;20202;-78
2022/12/06 11:07:00;;;;;;;17.83;16.17;;;8.40;99.90;;;;;;10431518;28;20230;-79
2022/12/06 11:12:16;;;;;;;15.97;14.57;;;8.40;99.90;;;;;;10418469;28;20198;-80
2022/12/06 11:17:23;;;;;;;13.70;12.40;;;8.40;99.90;;;;;;10429257;28;20221;-80
2022/12/06 11:22:35;;;;;;;12.90;11.80;;;8.40;99.90;;;;;;10444093;28;20255;-78
2022/12/06 11:27:47;;;;;;;16.87;15.17;;;8.40;99.90;;;;;;10419115;28;20292;-80
2022/12/06 11:32:51;;;;;;;14.60;13.30;;;8.40;99.90;;;;;;10414869;28;20229;-79
2022/12/06 11:37:58;;;;;;;14.33;12.93;;;8.40;99.90;;;;;;10415364;28;20316;-78
2022/12/06 11:43:05;;;;;;;13.70;12.50;;;8.40;99.90;;;;;;10419906;28;20254;-79
2022/12/06 11:48:14;;;;;;;13.40;12.10;;;8.40;99.90;;;;;;10417706;28;20756;-78
2022/12/06 11:53:24;;;;;;;11.73;10.70;;;8.40;99.90;;;;;;10430497;28;20201;-79
2022/12/06 11:58:34;;;;;;;10.60;9.70;;;8.30;99.90;;;;;;10431528;28;20694;-79
2022/12/06 12:03:38;;;;;;;10.67;9.67;;;8.20;99.90;;;;;;10402649;28;20189;-79
2022/12/06 12:08:40;;;;;;;10.93;9.80;;;8.20;99.90;;;;;;10420409;28;20209;-82
2022/12/06 12:13:51;;;;;;;12.23;10.33;;;8.20;99.90;;;;;;10438837;28;20669;-81
2022/12/06 12:19:00;;;;;;;11.10;10.07;;;8.20;99.90;;;;;;10418210;28;20221;-78
2022/12/06 12:24:03;;;;;;;9.87;8.90;;;8.20;99.90;;;;;;10421488;28;20647;-78
2022/12/06 12:29:15;;;;;;;10.23;9.23;;;8.20;99.90;;;;;;10400592;28;20225;-80
2022/12/06 12:34:20;;;;;;;8.30;7.50;;;8.20;99.90;;;;;;10421176;28;20193;-79
2022/12/06 12:39:32;;;;;;;7.90;7.30;;;8.10;99.90;;;;;;10418065;28;20315;-78
2022/12/06 12:44:39;;;;;;;7.43;6.73;;;8.10;99.90;;;;;;10401025;28;20707;-80
2022/12/06 12:49:41;;;;;;;7.07;6.37;;;8.10;99.90;;;;;;10395277;28;20329;-80
2022/12/06 12:54:52;;;;;;;6.20;4.87;;;8.10;99.90;;;;;;10411855;28;20268;-78
2022/12/06 12:59:56;;;;;;;6.77;6.13;;;8.10;99.90;;;;;;10406608;28;20296;-80
2022/12/06 13:05:02;;;;;;;10.23;6.70;;;8.10;99.90;;;;;;10390249;28;20198;-82
2022/12/06 13:10:08;;;;;;;7.67;6.40;;;8.10;99.90;;;;;;10360428;23;20313;-78
2022/12/06 13:15:16;;;;;;;6.77;6.27;;;8.10;99.90;;;;;;10356089;28;20860;-82
2022/12/06 13:20:23;;;;;;;5.10;4.70;;;8.10;99.90;;;;;;10319146;28;20245;-81
2022/12/06 13:25:25;;;;;;;7.30;6.60;;;8.10;99.90;;;;;;10322117;28;20203;-82
2022/12/06 13:30:31;;;;;;;7.57;6.80;;;8.10;99.90;;;;;;10319957;28;20704;-81
2022/12/06 13:35:52;;;;;;;7.70;6.97;;;8.10;99.90;;;;;;10319187;28;20191;-82
2022/12/06 13:40:55;;;;;;;7.53;6.83;;;8.10;99.90;;;;;;10298200;28;20223;-82
2022/12/06 13:46:20;;;;;;;7.33;6.73;;;8.10;99.90;;;;;;10290312;28;20200;-81
2022/12/06 13:51:48;;;;;;;7.23;6.73;;;8.10;99.90;;;;;;10291713;28;20686;-82
2022/12/06 13:56:57;;;;;;;7.20;6.70;;;8.10;99.90;;;;;;10294617;28;20231;-81
2022/12/06 14:02:01;;;;;;;7.50;6.90;;;8.10;99.90;;;;;;10327171;28;20199;-80
2022/12/06 14:07:05;;;;;;;7.60;6.97;;;8.10;99.90;;;;;;10320740;28;20222;-82
2022/12/06 14:12:18;;;;;;;6.90;6.40;;;8.00;99.90;;;;;;10327963;28;20216;-81
2022/12/06 14:17:27;;;;;;;7.40;6.90;;;8.00;99.90;;;;;;10352325;28;20299;-82
2022/12/06 14:22:35;;;;;;;7.50;6.90;;;8.00;99.90;;;;;;10318897;28;20210;-81
2022/12/06 14:27:44;;;;;;;9.13;8.43;;;8.00;99.90;;;;;;10318793;28;20220;-81
2022/12/06 14:32:49;;;;;;;7.00;6.03;;;8.00;99.90;;;;;;10324495;28;20207;-82
2022/12/06 14:37:54;;;;;;;7.57;7.07;;;8.00;99.90;;;;;;10313790;28;20243;-80
2022/12/06 14:43:04;;;;;;;6.60;6.10;;;8.00;99.90;;;;;;10308241;28;20207;-81
2022/12/06 14:48:11;;;;;;;6.60;6.10;;;8.00;99.90;;;;;;10307718;28;20212;-80
2022/12/06 14:53:15;;;;;;;6.37;5.87;;;7.90;99.90;;;;;;10312229;28;20215;-81
2022/12/06 14:58:20;;;;;;;6.57;6.17;;;7.90;99.90;;;;;;10287125;28;20219;-82
2022/12/06 15:03:27;;;;;;;6.57;6.17;;;7.90;99.90;;;;;;10297743;28;20208;-82
2022/12/06 15:08:33;;;;;;;6.27;5.87;;;7.90;99.90;;;;;;10299730;28;20219;-81
2022/12/06 15:13:38;;;;;;;7.93;7.30;;;7.90;99.90;;;;;;10299106;28;20234;-82
2022/12/06 15:18:46;;;;;;;10.67;9.77;;;7.90;99.90;;;;;;10300533;28;20273;-82
2022/12/06 15:23:50;;;;;;;6.83;6.23;;;7.90;99.90;;;;;;10304233;28;20203;-83
2022/12/06 15:28:55;;;;;;;8.03;7.40;;;7.90;99.90;;;;;;10304252;28;20219;-81
2022/12/06 15:34:02;;;;;;;8.27;7.67;;;7.90;99.90;;;;;;10301373;28;20304;-83
2022/12/06 15:39:04;;;;;;;8.20;7.60;;;7.90;99.90;;;;;;10291126;28;20227;-83
2022/12/06 15:44:13;;;;;;;7.73;7.17;;;7.90;99.90;;;;;;10299273;28;20629;-81
2022/12/06 15:49:18;;;;;;;11.10;8.03;;;7.90;99.90;;;;;;10307312;28;20231;-82
2022/12/06 15:54:23;;;;;;;8.33;7.33;;;7.90;99.90;;;;;;10331372;28;20204;-82
2022/12/06 15:59:25;;;;;;;9.63;8.83;;;7.90;99.90;;;;;;10297289;28;20703;-81
2022/12/06 16:04:31;;;;;;;8.57;7.97;;;7.80;99.90;;;;;;10307119;28;20230;-81
2022/12/06 16:09:33;;;;;;;7.60;7.00;;;7.80;99.90;;;;;;10320183;28;20223;-81
2022/12/06 16:14:35;;;;;;;8.93;8.17;;;7.80;99.90;;;;;;10319266;28;20223;-81
2022/12/06 16:24:59;;;;;;;8.90;8.20;;;7.80;99.90;;;;;;10315232;28;20836;-82
2022/12/06 16:30:01;;;;;;;9.27;8.50;;;7.80;99.90;;;;;;10290947;28;20227;-79
2022/12/06 16:35:05;;;;;;;8.43;7.73;;;7.80;99.90;;;;;;10273996;28;20238;-78
2022/12/06 16:40:18;;;;;;;8.50;7.90;;;7.80;99.90;;;;;;10290967;28;20223;-79
2022/12/06 16:45:20;;;;;;;9.07;8.37;;;7.80;99.90;;;;;;10285138;28;20208;-79
2022/12/06 16:50:26;;;;;;;7.90;7.30;;;7.80;99.90;;;;;;10301296;28;20231;-81
2022/12/06 16:55:29;;;;;;;8.00;7.20;;;7.80;99.90;;;;;;10293501;28;20583;-81
2022/12/06 17:00:34;;;;;;;8.27;7.67;;;7.80;99.90;;;;;;10291162;28;20680;-80
2022/12/06 17:05:37;;;;;;;8.87;8.17;;;7.80;99.90;;;;;;10304971;28;20287;-79
2022/12/06 17:10:39;;;;;;;9.43;8.63;;;7.80;99.90;;;;;;10302118;28;20294;-81
2022/12/06 17:15:41;;;;;;;9.63;8.93;;;7.80;99.90;;;;;;10290412;28;20199;-79
2022/12/06 17:20:45;;;;;;;8.67;7.80;;;7.80;99.90;;;;;;10306917;28;20218;-79
2022/12/06 17:25:56;;;;;;;8.53;7.93;;;7.90;99.90;;;;;;10297348;28;20458;-80
2022/12/06 17:30:58;;;;;;;8.60;7.80;;;7.80;99.90;;;;;;10309471;28;20720;-80
2022/12/06 17:36:06;;;;;;;9.27;8.53;;;7.90;99.90;;;;;;10291786;28;20270;-78
2022/12/06 17:46:34;;;;;;;8.50;7.88;;;7.90;99.90;;;;;;10286037;28;20418;-79
2022/12/06 17:51:38;;;;;;;8.57;7.90;;;7.90;99.90;;;;;;10289677;28;20217;-80
2022/12/06 17:56:41;;;;;;;8.87;8.17;;;7.90;99.90;;;;;;10288839;28;20287;-79
2022/12/06 18:01:43;;;;;;;9.57;8.77;;;7.90;99.90;;;;;;10292260;28;20189;-79
2022/12/06 18:06:47;;;;;;;8.77;7.97;;;7.90;99.90;;;;;;10295387;28;20210;-80
2022/12/06 18:11:50;;;;;;;8.50;7.80;;;7.90;99.90;;;;;;10295777;28;20254;-80
2022/12/06 18:16:52;;;;;;;8.37;7.57;;;7.90;99.90;;;;;;10296260;28;20728;-80
2022/12/06 18:21:55;;;;;;;8.60;7.90;;;7.90;99.90;;;;;;10295068;28;20188;-79
2022/12/06 18:26:57;;;;;;;8.63;7.93;;;7.90;99.90;;;;;;10295695;28;20222;-78
2022/12/06 18:31:59;;;;;;;9.80;9.00;;;7.90;99.90;;;;;;10304048;28;20684;-81
2022/12/06 18:37:03;;;;;;;9.50;8.70;;;7.90;99.90;;;;;;10304906;28;20184;-80
2022/12/06 18:42:05;;;;;;;10.80;9.80;;;7.90;99.90;;;;;;10305637;28;20242;-81
2022/12/06 18:47:07;;;;;;;9.43;8.63;;;7.90;99.90;;;;;;10304698;28;20228;-81
2022/12/06 18:52:11;;;;;;;9.10;8.40;;;7.90;99.90;;;;;;10305128;28;20448;-81
2022/12/06 18:57:13;;;;;;;9.10;8.30;;;7.90;99.90;;;;;;10305344;28;20662;-78
2022/12/06 19:02:15;;;;;;;9.23;8.63;;;7.90;99.90;;;;;;10277402;28;20295;-79
2022/12/06 19:07:18;;;;;;;8.63;7.83;;;7.90;99.90;;;;;;10292875;28;20216;-81
2022/12/06 19:12:21;;;;;;;9.17;8.43;;;7.90;99.90;;;;;;10300090;28;20638;-81
2022/12/06 19:17:23;;;;;;;9.40;8.70;;;7.90;99.90;;;;;;10303137;28;20248;-81
2022/12/06 19:22:26;;;;;;;9.60;8.83;;;7.90;99.90;;;;;;10307499;28;20192;-80
2022/12/06 19:27:28;;;;;;;9.83;9.03;;;7.90;99.90;;;;;;10301286;28;20262;-81
2022/12/06 19:32:30;;;;;;;10.20;9.40;;;7.90;99.90;;;;;;10301990;28;20220;-81
2022/12/06 19:37:34;;;;;;;9.70;8.90;;;7.90;99.90;;;;;;10303137;28;20216;-80
2022/12/06 19:47:56;;;;;;;9.80;8.80;;;7.90;99.90;;;;;;10261069;28;20278;-81
2022/12/06 19:52:59;;;;;;;11.00;10.00;;;7.80;99.90;;;;;;10300553;28;20247;-81
2022/12/06 19:58:01;;;;;;;10.43;9.67;;;7.90;99.90;;;;;;10313403;28;20219;-81
2022/12/06 20:03:03;;;;;;;10.83;9.97;;;7.90;99.90;;;;;;10300509;28;20196;-81
2022/12/06 20:08:07;;;;;;;9.63;8.93;;;7.90;99.90;;;;;;10297967;28;20337;-80
2022/12/06 20:13:09;;;;;;;11.03;10.10;;;7.90;99.90;;;;;;10298631;28;20824;-81
2022/12/06 20:18:11;;;;;;;11.23;10.23;;;7.90;99.90;;;;;;10301204;28;20226;-81
2022/12/06 20:23:14;;;;;;;9.80;9.00;;;7.90;99.90;;;;;;10317510;28;20204;-81
2022/12/06 20:28:17;;;;;;;10.10;9.30;;;7.90;99.90;;;;;;10321035;28;20220;-80
2022/12/06 20:33:19;;;;;;;7.67;7.07;;;7.90;99.90;;;;;;10327691;28;20219;-81
2022/12/06 20:38:22;;;;;;;8.70;7.90;;;7.90;99.90;;;;;;10278735;28;20303;-81
2022/12/06 20:43:24;;;;;;;9.00;8.30;;;7.90;99.90;;;;;;10307268;28;20196;-79
2022/12/06 20:48:26;;;;;;;9.30;8.60;;;7.80;99.90;;;;;;10274691;28;20220;-80
2022/12/06 20:53:31;;;;;;;9.50;8.80;;;7.90;99.90;;;;;;10292880;28;20204;-80
2022/12/06 20:58:34;;;;;;;8.30;7.70;;;7.90;99.90;;;;;;10308503;28;20219;-81
2022/12/06 21:03:36;;;;;;;8.87;8.17;;;7.90;99.90;;;;;;10279614;28;20243;-82
2022/12/06 21:08:39;;;;;;;8.40;7.73;;;7.80;99.90;;;;;;10307644;28;20629;-81
2022/12/06 21:13:42;;;;;;;8.30;7.70;;;7.90;99.90;;;;;;10300158;28;20204;-81
2022/12/06 21:18:45;;;;;;;8.87;8.17;;;7.90;99.90;;;;;;10302151;28;20220;-81
2022/12/06 21:23:48;;;;;;;7.97;7.37;;;7.90;99.90;;;;;;10296444;28;20410;-81
2022/12/06 21:28:52;;;;;;;8.70;8.10;;;7.80;99.90;;;;;;10312612;28;20260;-81
2022/12/06 21:33:54;;;;;;;8.97;8.37;;;7.80;99.90;;;;;;10306725;28;20715;-81
2022/12/06 21:38:59;;;;;;;9.00;8.20;;;7.80;99.90;;;;;;10302515;28;20224;-81
2022/12/06 21:44:01;;;;;;;8.80;8.20;;;7.80;99.90;;;;;;10286661;28;20200;-81
2022/12/06 21:49:03;;;;;;;8.07;7.47;;;7.80;99.90;;;;;;10307248;28;20223;-81
2022/12/06 21:54:07;;;;;;;8.40;7.80;;;7.80;99.90;;;;;;10307571;28;20200;-79
2022/12/06 21:59:09;;;;;;;8.20;7.60;;;7.80;99.90;;;;;;10272441;28;20642;-80
2022/12/06 22:04:11;;;;;;;8.43;7.90;;;7.80;99.90;;;;;;10257563;29;20189;-80
2022/12/06 22:09:14;;;;;;;9.03;8.33;;;7.80;99.90;;;;;;10288845;28;20242;-79
2022/12/06 22:14:16;;;;;;;10.00;9.07;;;7.80;99.90;;;;;;10292099;28;20206;-79
2022/12/06 22:19:18;;;;;;;9.10;8.40;;;7.80;99.90;;;;;;10293974;28;20243;-80
2022/12/06 22:24:22;;;;;;;9.53;8.77;;;7.80;99.90;;;;;;10316195;28;20211;-81
2022/12/06 22:29:24;;;;;;;9.20;8.50;;;7.80;99.90;;;;;;10323801;28;20220;-81
2022/12/06 22:34:26;;;;;;;9.50;8.80;;;7.80;99.90;;;;;;10304350;28;20275;-81
2022/12/06 22:39:30;;;;;;;10.60;9.70;;;7.80;99.90;;;;;;10300399;28;20303;-81
2022/12/06 22:44:32;;;;;;;10.80;10.00;;;7.80;99.90;;;;;;10302617;28;20664;-80
2022/12/06 22:49:34;;;;;;;11.03;10.13;;;7.80;99.90;;;;;;10276245;28;20268;-80
2022/12/06 22:54:37;;;;;;;10.30;9.50;;;7.80;99.90;;;;;;10284857;28;20230;-80
2022/12/06 22:59:39;;;;;;;9.80;8.90;;;7.80;99.90;;;;;;10304135;28;20230;-78
2022/12/06 23:04:41;;;;;;;10.30;9.40;;;7.80;99.90;;;;;;10295100;28;20195;-80
2022/12/06 23:09:45;;;;;;;10.97;9.97;;;7.80;99.90;;;;;;10297411;28;20307;-81
2022/12/06 23:14:47;;;;;;;11.00;10.10;;;7.80;99.90;;;;;;10300645;28;20204;-81
2022/12/06 23:19:49;;;;;;;10.20;9.43;;;7.70;99.90;;;;;;10314168;28;20223;-81
2022/12/06 23:24:52;;;;;;;11.50;10.47;;;7.70;99.90;;;;;;10304281;28;20259;-80
2022/12/06 23:29:54;;;;;;;10.77;9.87;;;7.70;99.90;;;;;;10302601;28;20663;-81
2022/12/06 23:34:56;;;;;;;11.40;10.50;;;7.70;99.90;;;;;;10295723;28;20457;-81
2022/12/06 23:40:00;;;;;;;12.07;10.87;;;7.70;99.90;;;;;;10301264;28;20246;-81
2022/12/06 23:45:02;;;;;;;10.80;9.80;;;7.70;99.90;;;;;;10310613;28;20282;-79
2022/12/06 23:50:04;;;;;;;10.27;9.10;;;7.70;99.90;;;;;;10276632;28;20303;-81
2022/12/06 23:55:09;;;;;;;10.13;9.30;;;7.80;99.90;;;;;;10272536;28;20212;-80
